Time;durP1;ratioP1;P1;durP2;ratioP2;P2;SDS_P1;SDS_P2;PMS_P1;PMS_P2;Temp;Humidity;BMP_temperature;BMP_pressure;BME280_temperature;BME280_humidity;BME280_pressure;Samples;Min_cycle;Max_cycle;Signal;HPM_P1;HPM_P2
2022/06/11 00:00:42;;;;;;;;;;;14.60;99.90;;;;;;5073339;28;20028;-73
2022/06/11 00:03:08;;;;;;;;;;;14.60;99.90;;;;;;5073618;28;19925;-73
2022/06/11 00:05:36;;;;;;;;;;;14.60;99.90;;;;;;5072935;28;19924;-73
2022/06/11 00:08:03;;;;;;;;;;;14.60;99.90;;;;;;5073476;28;19979;-73
2022/06/11 00:10:32;;;;;;;;;;;14.50;99.90;;;;;;5072915;28;20426;-73
2022/06/11 00:12:59;;;;;;;;;;;14.50;99.90;;;;;;5073133;28;19925;-73
2022/06/11 00:15:25;;;;;;;;;;;14.40;99.90;;;;;;5072878;28;19924;-73
2022/06/11 00:17:53;;;;;;;;;;;14.50;99.90;;;;;;5073079;28;20344;-73
2022/06/11 00:20:20;;;;;;;;;;;14.50;99.90;;;;;;5073126;28;20007;-73
2022/06/11 00:22:46;;;;;;;;;;;14.30;99.90;;;;;;5072904;28;19924;-73
2022/06/11 00:25:13;;;;;;;;;;;14.20;99.90;;;;;;5072640;28;19928;-73
2022/06/11 00:27:41;;;;;;;;;;;14.30;99.90;;;;;;5072745;28;19971;-73
2022/06/11 00:30:11;;;;;;;;;;;14.20;99.90;;;;;;5072972;28;19925;-73
2022/06/11 00:32:38;;;;;;;;;;;14.30;99.90;;;;;;5073004;28;19924;-73
2022/06/11 00:35:05;;;;;;;;;;;14.20;99.90;;;;;;5072388;28;19970;-73
2022/06/11 00:37:32;;;;;;;;;;;14.00;99.90;;;;;;5072434;28;19924;-74
2022/06/11 00:39:59;;;;;;;;;;;14.00;99.90;;;;;;5072456;28;20341;-73
2022/06/11 00:42:27;;;;;;;;;;;14.20;99.90;;;;;;5072488;28;19924;-73
2022/06/11 00:45:20;;;;;;;;;;;14.40;99.90;;;;;;5072261;28;20381;-73
2022/06/11 00:47:48;;;;;;;;;;;14.10;99.90;;;;;;5071845;28;19928;-73
2022/06/11 00:50:18;;;;;;;;;;;14.20;99.90;;;;;;5072573;28;20042;-74
2022/06/11 00:52:46;;;;;;;;;;;14.20;99.90;;;;;;5072333;28;20424;-73
2022/06/11 00:55:15;;;;;;;;;;;14.10;99.90;;;;;;5072089;28;20013;-73
2022/06/11 00:57:44;;;;;;;;;;;13.90;99.90;;;;;;5072285;28;19928;-73
2022/06/11 01:00:15;;;;;;;;;;;13.80;99.90;;;;;;5072391;28;20346;-73
2022/06/11 01:02:43;;;;;;;;;;;13.70;99.90;;;;;;5072169;28;20019;-73
2022/06/11 01:05:14;;;;;;;;;;;13.70;99.90;;;;;;5071890;28;19924;-73
2022/06/11 01:07:46;;;;;;;;;;;13.70;99.90;;;;;;5072227;28;19924;-73
2022/06/11 01:10:17;;;;;;;;;;;13.70;99.90;;;;;;5072185;28;20458;-73
2022/06/11 01:12:48;;;;;;;;;;;13.70;99.90;;;;;;5072670;28;19924;-71
2022/06/11 01:15:17;;;;;;;;;;;13.70;99.90;;;;;;5071929;28;19924;-71
2022/06/11 01:17:49;;;;;;;;;;;13.60;99.90;;;;;;5072329;28;19924;-71
2022/06/11 01:20:26;;;;;;;;;;;13.60;99.90;;;;;;5071883;28;20432;-71
2022/06/11 01:23:06;;;;;;;;;;;13.60;99.90;;;;;;5072086;28;19924;-71
2022/06/11 01:25:36;;;;;;;;;;;13.70;99.90;;;;;;5071731;28;19975;-71
2022/06/11 01:28:18;;;;;;;;;;;13.60;99.90;;;;;;5072432;28;19924;-73
2022/06/11 01:30:50;;;;;;;;;;;13.40;99.90;;;;;;5072060;28;19955;-73
2022/06/11 01:33:20;;;;;;;;;;;13.30;99.90;;;;;;5072082;28;19979;-73
2022/06/11 01:35:53;;;;;;;;;;;13.30;99.90;;;;;;5071509;28;20376;-73
2022/06/11 01:38:24;;;;;;;;;;;13.30;99.90;;;;;;5071737;28;19970;-74
2022/06/11 01:40:53;;;;;;;;;;;13.30;99.90;;;;;;5071777;28;19931;-74
2022/06/11 01:43:23;;;;;;;;;;;13.30;99.90;;;;;;5071829;28;20392;-73
2022/06/11 01:45:52;;;;;;;;;;;13.30;99.90;;;;;;5071848;28;19925;-73
2022/06/11 01:48:21;;;;;;;;;;;13.30;99.90;;;;;;5071523;28;19929;-72
2022/06/11 01:50:51;;;;;;;;;;;13.30;99.90;;;;;;5071858;28;19971;-73
2022/06/11 01:53:26;;;;;;;;;;;13.30;99.90;;;;;;5071660;28;19924;-74
2022/06/11 01:55:59;;;;;;;;;;;13.20;99.90;;;;;;5071468;28;19987;-73
2022/06/11 01:58:43;;;;;;;;;;;13.30;99.90;;;;;;5073863;28;19931;-73
2022/06/11 02:01:16;;;;;;;;;;;13.30;99.90;;;;;;5076052;28;19928;-74
2022/06/11 02:03:46;;;;;;;;;;;13.30;99.90;;;;;;5075893;28;19924;-73
2022/06/11 02:06:16;;;;;;;;;;;13.20;99.90;;;;;;5075400;28;19925;-73
2022/06/11 02:08:49;;;;;;;;;;;13.10;99.90;;;;;;5075461;28;20278;-73
2022/06/11 02:11:19;;;;;;;;;;;13.10;99.90;;;;;;5075711;28;19974;-73
2022/06/11 02:13:48;;;;;;;;;;;13.00;99.90;;;;;;5075437;28;19972;-73
2022/06/11 02:16:19;;;;;;;;;;;12.90;99.90;;;;;;5075177;28;19979;-73
2022/06/11 02:18:47;;;;;;;;;;;13.00;99.90;;;;;;5075174;28;19925;-73
2022/06/11 02:21:15;;;;;;;;;;;13.10;99.90;;;;;;5075306;28;20028;-73
2022/06/11 02:23:44;;;;;;;;;;;12.90;99.90;;;;;;5075117;28;19931;-73
2022/06/11 02:26:14;;;;;;;;;;;12.90;99.90;;;;;;5075334;28;19994;-73
2022/06/11 02:28:43;;;;;;;;;;;12.80;99.90;;;;;;5075717;28;20002;-73
2022/06/11 02:31:12;;;;;;;;;;;12.80;99.90;;;;;;5075188;28;19924;-73
2022/06/11 02:33:40;;;;;;;;;;;12.80;99.90;;;;;;5075028;28;19936;-74
2022/06/11 02:36:14;;;;;;;;;;;12.70;99.90;;;;;;5075189;28;19924;-73
2022/06/11 02:38:41;;;;;;;;;;;12.70;99.90;;;;;;5074889;28;19924;-74
2022/06/11 02:41:10;;;;;;;;;;;12.70;99.90;;;;;;5074986;28;19978;-73
2022/06/11 02:43:37;;;;;;;;;;;12.70;99.90;;;;;;5074969;28;19928;-73
2022/06/11 02:48:47;;;;;;;;;;;12.60;99.90;;;;;;5073461;28;20323;-73
2022/06/11 02:51:14;;;;;;;;;;;12.60;99.90;;;;;;5074670;28;20514;-73
2022/06/11 02:53:41;;;;;;;;;;;12.70;99.90;;;;;;5074886;28;19924;-73
2022/06/11 02:56:07;;;;;;;;;;;12.60;99.90;;;;;;5074806;28;19991;-72
2022/06/11 02:58:34;;;;;;;;;;;12.60;99.90;;;;;;5074664;28;20351;-73
2022/06/11 03:01:01;;;;;;;;;;;12.60;99.90;;;;;;5074640;28;19928;-72
2022/06/11 03:03:28;;;;;;;;;;;12.50;99.90;;;;;;5074812;28;19932;-73
2022/06/11 03:05:58;;;;;;;;;;;12.40;99.90;;;;;;5074513;28;20381;-73
2022/06/11 03:08:25;;;;;;;;;;;12.50;99.90;;;;;;5074677;28;19971;-73
2022/06/11 03:10:54;;;;;;;;;;;12.50;99.90;;;;;;5073978;28;20300;-73
2022/06/11 03:13:21;;;;;;;;;;;12.40;99.90;;;;;;5074673;28;19924;-73
2022/06/11 03:15:48;;;;;;;;;;;12.40;99.90;;;;;;5074207;28;19986;-73
2022/06/11 03:18:15;;;;;;;;;;;12.40;99.90;;;;;;5074753;28;19932;-73
2022/06/11 03:20:42;;;;;;;;;;;12.20;99.90;;;;;;5074460;28;20304;-72
2022/06/11 03:23:10;;;;;;;;;;;12.40;99.90;;;;;;5074565;28;19979;-73
2022/06/11 03:25:38;;;;;;;;;;;12.30;99.90;;;;;;5074142;28;19924;-73
2022/06/11 03:28:08;;;;;;;;;;;12.30;99.90;;;;;;5074380;28;19947;-73
2022/06/11 03:30:34;;;;;;;;;;;12.30;99.90;;;;;;5074184;28;19986;-72
2022/06/11 03:33:01;;;;;;;;;;;12.40;99.90;;;;;;5074314;28;19967;-74
2022/06/11 03:35:28;;;;;;;;;;;12.40;99.90;;;;;;5074010;28;19970;-73
2022/06/11 03:37:56;;;;;;;;;;;12.40;99.90;;;;;;5074142;28;19978;-73
2022/06/11 03:40:24;;;;;;;;;;;12.60;99.90;;;;;;5074315;28;19947;-73
2022/06/11 03:42:51;;;;;;;;;;;12.60;99.90;;;;;;5073888;28;19924;-73
2022/06/11 03:45:18;;;;;;;;;;;12.80;99.90;;;;;;5073857;28;19935;-73
2022/06/11 03:47:45;;;;;;;;;;;13.00;99.90;;;;;;5074018;28;19925;-73
2022/06/11 03:50:16;;;;;;;;;;;13.00;99.90;;;;;;5073760;28;19928;-73
2022/06/11 03:52:43;;;;;;;;;;;13.20;99.90;;;;;;5073723;28;19932;-73
2022/06/11 03:55:10;;;;;;;;;;;13.20;99.90;;;;;;5073446;28;19928;-73
2022/06/11 03:57:38;;;;;;;;;;;13.10;99.90;;;;;;5073368;28;20373;-73
2022/06/11 04:00:07;;;;;;;;;;;13.00;99.90;;;;;;5073344;28;19928;-74
2022/06/11 04:02:34;;;;;;;;;;;13.00;99.90;;;;;;5073502;28;19924;-73
2022/06/11 04:05:00;;;;;;;;;;;13.10;99.90;;;;;;5073227;28;19932;-73
2022/06/11 04:07:27;;;;;;;;;;;13.00;99.90;;;;;;5073255;28;19978;-73
2022/06/11 04:09:54;;;;;;;;;;;13.20;99.90;;;;;;5073046;28;19986;-73
2022/06/11 04:12:21;;;;;;;;;;;13.20;99.90;;;;;;5073071;28;19979;-73
2022/06/11 04:14:50;;;;;;;;;;;13.20;99.90;;;;;;5073244;28;19925;-73
2022/06/11 04:17:18;;;;;;;;;;;13.20;99.90;;;;;;5073112;28;19924;-73
2022/06/11 04:19:46;;;;;;;;;;;13.20;99.90;;;;;;5072876;28;20336;-74
2022/06/11 04:22:14;;;;;;;;;;;13.20;99.90;;;;;;5072055;28;20343;-73
2022/06/11 04:24:41;;;;;;;;;;;13.20;99.90;;;;;;5072867;28;19928;-73
2022/06/11 04:27:09;;;;;;;;;;;13.20;99.90;;;;;;5072789;28;19924;-74
2022/06/11 04:29:36;;;;;;;;;;;13.20;99.90;;;;;;5072657;28;19979;-73
2022/06/11 04:32:06;;;;;;;;;;;13.30;99.90;;;;;;5072921;28;19924;-73
2022/06/11 04:34:33;;;;;;;;;;;13.50;99.90;;;;;;5072804;28;19928;-73
2022/06/11 04:37:00;;;;;;;;;;;13.50;99.90;;;;;;5072355;28;19970;-73
2022/06/11 04:39:28;;;;;;;;;;;13.70;99.90;;;;;;5072499;28;19937;-71
2022/06/11 04:41:55;;;;;;;;;;;13.80;99.90;;;;;;5072566;28;20002;-71
2022/06/11 04:44:22;;;;;;;;;;;13.80;99.90;;;;;;5072462;28;20380;-71
2022/06/11 04:46:49;;;;;;;;;;;13.90;99.90;;;;;;5072393;28;19928;-71
2022/06/11 04:49:17;;;;;;;;;;;14.00;99.90;;;;;;5072179;28;19928;-71
2022/06/11 04:51:44;;;;;;;;;;;14.10;99.90;;;;;;5072420;28;19986;-71
2022/06/11 04:54:11;;;;;;;;;;;14.20;99.90;;;;;;5072383;28;19925;-71
2022/06/11 04:56:38;;;;;;;;;;;14.20;99.90;;;;;;5072140;28;19924;-71
2022/06/11 04:59:06;;;;;;;;;;;14.20;99.90;;;;;;5072052;28;19928;-71
2022/06/11 05:01:33;;;;;;;;;;;14.30;99.90;;;;;;5072315;28;20376;-71
2022/06/11 05:04:00;;;;;;;;;;;14.30;99.90;;;;;;5072095;28;19978;-71
2022/06/11 05:06:30;;;;;;;;;;;14.30;99.90;;;;;;5071871;28;20470;-71
2022/06/11 05:08:56;;;;;;;;;;;14.30;99.90;;;;;;5072090;28;19931;-71
2022/06/11 05:11:23;;;;;;;;;;;14.40;99.90;;;;;;5072495;28;20427;-73
2022/06/11 05:13:51;;;;;;;;;;;14.60;99.90;;;;;;5072037;28;19936;-73
2022/06/11 05:16:19;;;;;;;;;;;15.00;99.90;;;;;;5071727;28;19924;-73
2022/06/11 05:18:46;;;;;;;;;;;15.20;99.90;;;;;;5071643;28;19979;-73
2022/06/11 05:21:13;;;;;;;;;;;15.10;99.90;;;;;;5071933;28;20347;-73
2022/06/11 05:23:41;;;;;;;;;;;15.30;99.90;;;;;;5071944;28;20407;-71
2022/06/11 05:26:09;;;;;;;;;;;15.40;99.90;;;;;;5071887;28;19925;-71
2022/06/11 05:28:36;;;;;;;;;;;15.60;99.90;;;;;;5071907;28;19924;-71
2022/06/11 05:31:04;;;;;;;;;;;15.80;99.90;;;;;;5071993;28;19958;-73
2022/06/11 05:33:30;;;;;;;;;;;15.80;99.90;;;;;;5071556;28;19982;-73
2022/06/11 05:35:58;;;;;;;;;;;15.90;99.90;;;;;;5071583;28;19924;-73
2022/06/11 05:38:25;;;;;;;;;;;16.00;99.90;;;;;;5071895;28;20342;-73
2022/06/11 05:40:54;;;;;;;;;;;16.10;99.90;;;;;;5071821;28;20339;-73
2022/06/11 05:43:21;;;;;;;;;;;16.10;99.90;;;;;;5072044;28;19990;-73
2022/06/11 05:45:50;;;;;;;;;;;16.10;99.90;;;;;;5071493;28;19978;-73
2022/06/11 05:48:18;;;;;;;;;;;16.30;99.90;;;;;;5071969;28;19925;-73
2022/06/11 05:50:47;;;;;;;;;;;16.40;99.90;;;;;;5071754;28;19928;-73
2022/06/11 05:53:16;;;;;;;;;;;16.30;99.90;;;;;;5071698;28;19924;-73
2022/06/11 05:55:44;;;;;;;;;;;16.30;99.90;;;;;;5071509;28;19932;-71
2022/06/11 05:58:15;;;;;;;;;;;16.60;99.90;;;;;;5071720;28;19947;-73
2022/06/11 06:00:42;;;;;;;;;;;16.70;99.90;;;;;;5071535;28;19937;-73
2022/06/11 06:03:08;;;;;;;;;;;16.80;99.90;;;;;;5071732;28;19994;-73
2022/06/11 06:05:36;;;;;;;;;;;16.70;99.90;;;;;;5071503;28;19978;-73
2022/06/11 06:08:03;;;;;;;;;;;16.80;99.90;;;;;;5071613;28;19931;-72
2022/06/11 06:10:29;;;;;;;;;;;16.90;99.90;;;;;;5071535;28;19967;-73
2022/06/11 06:12:56;;;;;;;;;;;17.00;99.90;;;;;;5071415;28;19955;-73
2022/06/11 06:15:25;;;;;;;;;;;17.00;99.90;;;;;;5071481;28;19939;-73
2022/06/11 06:17:52;;;;;;;;;;;17.20;99.90;;;;;;5071193;28;19924;-73
2022/06/11 06:20:21;;;;;;;;;;;17.40;99.90;;;;;;5070989;28;19924;-73
2022/06/11 06:22:48;;;;;;;;;;;17.60;99.90;;;;;;5071145;28;20388;-73
2022/06/11 06:25:16;;;;;;;;;;;17.90;99.90;;;;;;5070799;28;19924;-73
2022/06/11 06:27:42;;;;;;;;;;;18.00;99.90;;;;;;5071049;28;19932;-73
2022/06/11 06:30:10;;;;;;;;;;;18.10;99.90;;;;;;5070731;28;19928;-73
2022/06/11 06:32:38;;;;;;;;;;;18.00;99.90;;;;;;5071165;28;19924;-73
2022/06/11 06:35:05;;;;;;;;;;;18.40;99.90;;;;;;5071196;28;19925;-73
2022/06/11 06:37:33;;;;;;;;;;;18.40;99.90;;;;;;5071306;28;20289;-73
2022/06/11 06:40:00;;;;;;;;;;;18.60;99.90;;;;;;5070911;28;20015;-71
2022/06/11 06:42:26;;;;;;;;;;;18.50;99.90;;;;;;5071197;28;19989;-71
2022/06/11 06:44:53;;;;;;;;;;;18.40;99.90;;;;;;5072176;28;20407;-73
2022/06/11 06:47:21;;;;;;;;;;;18.40;99.90;;;;;;5075209;28;19998;-73
2022/06/11 06:49:49;;;;;;;;;;;18.70;99.90;;;;;;5074698;28;19925;-73
2022/06/11 06:52:16;;;;;;;;;;;18.60;99.90;;;;;;5074739;28;19924;-73
2022/06/11 06:54:42;;;;;;;;;;;18.80;99.90;;;;;;5074485;28;20392;-73
2022/06/11 06:57:09;;;;;;;;;;;18.70;99.90;;;;;;5074481;28;19962;-71
2022/06/11 06:59:36;;;;;;;;;;;18.60;99.90;;;;;;5074417;28;19925;-71
2022/06/11 07:02:04;;;;;;;;;;;18.90;99.90;;;;;;5074577;28;19924;-71
2022/06/11 07:04:30;;;;;;;;;;;18.80;99.90;;;;;;5074416;28;20393;-71
2022/06/11 07:06:59;;;;;;;;;;;19.00;99.90;;;;;;5074455;28;20155;-71
2022/06/11 07:09:25;;;;;;;;;;;19.40;99.90;;;;;;5074198;28;20246;-71
2022/06/11 07:11:52;;;;;;;;;;;19.00;99.90;;;;;;5074270;28;19924;-71
2022/06/11 07:14:19;;;;;;;;;;;19.30;99.90;;;;;;5074444;28;19967;-71
2022/06/11 07:16:49;;;;;;;;;;;19.40;99.90;;;;;;5074068;28;19924;-71
2022/06/11 07:19:17;;;;;;;;;;;19.70;99.90;;;;;;5073973;28;19983;-71
2022/06/11 07:21:45;;;;;;;;;;;20.10;99.90;;;;;;5074085;28;20407;-71
2022/06/11 07:24:16;;;;;;;;;;;19.60;99.90;;;;;;5074099;28;20327;-71
2022/06/11 07:26:44;;;;;;;;;;;19.70;99.90;;;;;;5073795;28;20384;-71
2022/06/11 07:29:14;;;;;;;;;;;20.00;99.90;;;;;;5074026;28;19925;-71
2022/06/11 07:31:42;;;;;;;;;;;19.90;99.90;;;;;;5074058;28;19929;-71
2022/06/11 07:34:08;;;;;;;;;;;20.40;99.90;;;;;;5074072;28;19924;-71
2022/06/11 07:36:35;;;;;;;;;;;20.80;99.90;;;;;;5073791;28;19931;-73
2022/06/11 07:39:02;;;;;;;;;;;21.00;99.90;;;;;;5073670;28;19928;-74
2022/06/11 07:41:31;;;;;;;;;;;20.90;99.90;;;;;;5073853;28;19928;-71
2022/06/11 07:43:57;;;;;;;;;;;20.80;99.90;;;;;;5074013;28;20016;-71
2022/06/11 07:46:24;;;;;;;;;;;20.50;99.90;;;;;;5073702;28;20101;-71
2022/06/11 07:48:51;;;;;;;;;;;21.10;99.90;;;;;;5073313;28;19924;-73
2022/06/11 07:51:18;;;;;;;;;;;21.60;99.90;;;;;;5073616;28;19983;-73
2022/06/11 07:53:48;;;;;;;;;;;21.60;99.90;;;;;;5073655;28;19925;-73
2022/06/11 07:56:15;;;;;;;;;;;22.40;99.90;;;;;;5072950;28;19956;-73
2022/06/11 07:58:44;;;;;;;;;;;22.10;99.90;;;;;;5073437;28;20396;-73
2022/06/11 08:01:11;;;;;;;;;;;21.90;99.90;;;;;;5073693;28;19929;-73
2022/06/11 08:03:38;;;;;;;;;;;22.60;99.90;;;;;;5073689;28;19925;-73
2022/06/11 08:06:07;;;;;;;;;;;22.80;99.90;;;;;;5073434;28;19924;-73
2022/06/11 08:08:34;;;;;;;;;;;22.60;99.90;;;;;;5073492;28;19925;-73
2022/06/11 08:11:01;;;;;;;;;;;23.00;99.90;;;;;;5073335;28;19931;-73
2022/06/11 08:13:28;;;;;;;;;;;23.30;99.90;;;;;;5073492;28;19931;-73
2022/06/11 08:15:57;;;;;;;;;;;22.80;99.90;;;;;;5073023;28;19947;-73
2022/06/11 08:18:24;;;;;;;;;;;23.00;99.90;;;;;;5073021;28;20317;-73
2022/06/11 08:20:51;;;;;;;;;;;23.20;99.90;;;;;;5073010;28;20124;-73
2022/06/11 08:23:18;;;;;;;;;;;22.80;99.20;;;;;;5073233;28;19925;-73
2022/06/11 08:25:45;;;;;;;;;;;22.70;99.80;;;;;;5072445;28;20419;-73
2022/06/11 08:28:14;;;;;;;;;;;22.70;99.80;;;;;;5072958;28;20057;-73
2022/06/11 08:30:41;;;;;;;;;;;22.40;99.90;;;;;;5072847;28;19960;-73
2022/06/11 08:33:09;;;;;;;;;;;22.20;99.90;;;;;;5072781;28;19982;-73
2022/06/11 08:35:36;;;;;;;;;;;23.20;99.90;;;;;;5072401;28;19924;-71
2022/06/11 08:38:04;;;;;;;;;;;23.70;99.00;;;;;;5072883;28;19928;-71
2022/06/11 08:40:33;;;;;;;;;;;23.80;98.90;;;;;;5072412;28;19929;-71
2022/06/11 08:43:01;;;;;;;;;;;24.50;97.90;;;;;;5072736;28;19986;-71
2022/06/11 08:45:30;;;;;;;;;;;24.60;97.50;;;;;;5072570;28;20007;-73
2022/06/11 08:47:59;;;;;;;;;;;24.40;97.30;;;;;;5072723;28;19925;-71
2022/06/11 08:50:29;;;;;;;;;;;24.80;97.50;;;;;;5073279;28;20155;-73
2022/06/11 08:52:56;;;;;;;;;;;24.80;97.30;;;;;;5072621;28;19924;-73
2022/06/11 08:55:24;;;;;;;;;;;24.70;97.80;;;;;;5072250;28;19994;-73
2022/06/11 08:57:54;;;;;;;;;;;25.60;96.80;;;;;;5072328;28;19925;-73
2022/06/11 09:00:23;;;;;;;;;;;26.00;95.80;;;;;;5072326;28;19978;-73
2022/06/11 09:02:58;;;;;;;;;;;25.00;96.80;;;;;;5072201;28;19931;-73
2022/06/11 09:05:41;;;;;;;;;;;25.30;97.00;;;;;;5072086;28;19978;-73
2022/06/11 09:08:14;;;;;;;;;;;26.10;95.30;;;;;;5071649;28;19924;-73
2022/06/11 09:10:48;;;;;;;;;;;27.20;94.20;;;;;;5072602;28;19924;-73
2022/06/11 09:13:21;;;;;;;;;;;27.30;93.30;;;;;;5072065;28;19925;-73
2022/06/11 09:15:52;;;;;;;;;;;26.80;94.30;;;;;;5071932;28;19962;-73
2022/06/11 09:18:28;;;;;;;;;;;27.80;91.50;;;;;;5072178;28;20011;-73
2022/06/11 09:21:06;;;;;;;;;;;29.60;89.50;;;;;;5072046;28;19978;-73
2022/06/11 09:23:48;;;;;;;;;;;30.20;86.70;;;;;;5072085;28;19967;-73
2022/06/11 09:26:26;;;;;;;;;;;29.60;89.10;;;;;;5058862;28;19925;-73
2022/06/11 09:28:59;;;;;;;;;;;29.10;88.50;;;;;;5072117;28;19928;-73
2022/06/11 09:31:31;;;;;;;;;;;27.60;91.30;;;;;;5072056;28;19925;-73
2022/06/11 09:34:03;;;;;;;;;;;27.80;90.70;;;;;;5071774;28;20419;-73
2022/06/11 09:36:33;;;;;;;;;;;28.40;91.20;;;;;;5071824;28;20377;-73
2022/06/11 09:39:04;;;;;;;;;;;28.00;91.70;;;;;;5071681;28;19925;-73
2022/06/11 09:41:37;;;;;;;;;;;27.10;92.20;;;;;;5071945;28;19979;-73
2022/06/11 09:44:10;;;;;;;;;;;27.70;91.30;;;;;;5071762;28;19928;-73
2022/06/11 09:46:42;;;;;;;;;;;27.10;91.80;;;;;;5071437;28;19932;-73
2022/06/11 09:49:15;;;;;;;;;;;27.30;91.50;;;;;;5071721;28;19948;-73
2022/06/11 09:51:46;;;;;;;;;;;27.60;90.60;;;;;;5072039;28;20361;-73
2022/06/11 09:54:20;;;;;;;;;;;29.40;88.60;;;;;;5071857;28;19960;-73
2022/06/11 09:56:51;;;;;;;;;;;28.50;88.80;;;;;;5071392;28;19924;-73
2022/06/11 09:59:25;;;;;;;;;;;28.90;88.10;;;;;;5071441;28;19925;-73
2022/06/11 10:01:55;;;;;;;;;;;27.40;90.50;;;;;;5071613;28;19924;-73
2022/06/11 10:04:25;;;;;;;;;;;26.50;90.80;;;;;;5071390;28;20377;-73
2022/06/11 10:06:54;;;;;;;;;;;26.80;90.70;;;;;;5071135;28;20436;-73
2022/06/11 10:09:22;;;;;;;;;;;28.60;89.30;;;;;;5071510;28;20346;-73
2022/06/11 10:11:51;;;;;;;;;;;30.60;86.30;;;;;;5071776;28;19924;-73
2022/06/11 10:14:32;;;;;;;;;;;30.00;87.10;;;;;;5071661;28;19929;-72
2022/06/11 10:17:02;;;;;;;;;;;28.50;85.40;;;;;;5071416;28;20011;-71
2022/06/11 10:19:41;;;;;;;;;;;27.20;90.00;;;;;;5072031;28;19931;-72
2022/06/11 10:22:13;;;;;;;;;;;27.30;87.90;;;;;;5075154;28;20351;-71
2022/06/11 10:24:43;;;;;;;;;;;27.20;88.90;;;;;;5075451;28;19925;-72
2022/06/11 10:27:12;;;;;;;;;;;28.50;87.70;;;;;;5075267;28;19928;-72
2022/06/11 10:29:42;;;;;;;;;;;28.20;88.50;;;;;;5075009;28;20380;-71
2022/06/11 10:32:13;;;;;;;;;;;27.40;88.00;;;;;;5075003;28;19932;-72
2022/06/11 10:34:43;;;;;;;;;;;27.60;88.00;;;;;;5075063;28;19986;-72
2022/06/11 10:37:13;;;;;;;;;;;27.60;88.00;;;;;;5075422;28;19931;-73
2022/06/11 10:39:45;;;;;;;;;;;26.60;89.60;;;;;;5074990;28;20010;-73
2022/06/11 10:42:14;;;;;;;;;;;26.10;89.00;;;;;;5075362;28;20019;-73
2022/06/11 10:44:44;;;;;;;;;;;26.30;89.70;;;;;;5074889;28;20400;-73
2022/06/11 10:47:14;;;;;;;;;;;26.00;90.60;;;;;;5074842;28;19978;-73
2022/06/11 10:49:41;;;;;;;;;;;26.70;90.00;;;;;;5074558;28;20012;-73
2022/06/11 10:52:16;;;;;;;;;;;26.60;90.20;;;;;;5074890;28;19924;-73
2022/06/11 10:54:44;;;;;;;;;;;28.60;86.70;;;;;;5074840;28;19994;-73
2022/06/11 10:57:16;;;;;;;;;;;29.30;82.90;;;;;;5074629;28;19924;-73
2022/06/11 10:59:45;;;;;;;;;;;29.30;83.80;;;;;;5074728;28;20336;-73
2022/06/11 11:02:21;;;;;;;;;;;29.00;83.00;;;;;;5074567;28;19931;-73
2022/06/11 11:04:55;;;;;;;;;;;28.50;83.20;;;;;;5074698;28;19924;-73
2022/06/11 11:07:24;;;;;;;;;;;28.20;85.00;;;;;;5074511;28;19925;-73
2022/06/11 11:09:57;;;;;;;;;;;28.00;85.00;;;;;;5074635;28;20277;-73
2022/06/11 11:12:26;;;;;;;;;;;27.50;85.80;;;;;;5074494;28;19924;-73
2022/06/11 11:15:01;;;;;;;;;;;27.60;85.70;;;;;;5074082;28;19924;-73
2022/06/11 11:17:28;;;;;;;;;;;27.30;87.20;;;;;;5074516;28;19955;-73
2022/06/11 11:22:42;;;;;;;;;;;28.10;85.00;;;;;;5074470;28;20312;-73
2022/06/11 11:25:16;;;;;;;;;;;28.90;82.30;;;;;;5073854;28;20388;-73
2022/06/11 11:27:46;;;;;;;;;;;29.80;82.40;;;;;;5074140;28;19925;-73
2022/06/11 11:30:24;;;;;;;;;;;30.90;80.70;;;;;;5073393;28;20400;-73
2022/06/11 11:32:51;;;;;;;;;;;29.70;80.80;;;;;;5074039;28;19925;-72
2022/06/11 11:35:19;;;;;;;;;;;29.90;82.40;;;;;;5073775;28;20321;-72
2022/06/11 11:37:46;;;;;;;;;;;31.20;77.90;;;;;;5074008;28;19934;-72
2022/06/11 11:40:25;;;;;;;;;;;32.30;77.40;;;;;;5073603;28;19931;-73
2022/06/11 11:42:55;;;;;;;;;;;31.60;79.00;;;;;;5073771;28;19979;-73
2022/06/11 11:45:24;;;;;;;;;;;30.50;82.10;;;;;;5073390;28;19979;-72
2022/06/11 11:47:52;;;;;;;;;;;31.30;79.00;;;;;;5073954;28;19925;-73
2022/06/11 11:50:21;;;;;;;;;;;29.80;80.30;;;;;;5073414;28;19931;-72
2022/06/11 11:52:52;;;;;;;;;;;29.60;82.20;;;;;;5073491;28;19979;-72
2022/06/11 11:55:21;;;;;;;;;;;29.40;82.10;;;;;;5073843;28;20281;-72
2022/06/11 11:57:54;;;;;;;;;;;29.20;80.90;;;;;;5073403;28;20400;-72
2022/06/11 12:00:26;;;;;;;;;;;30.20;82.30;;;;;;5073390;28;19978;-72
2022/06/11 12:02:55;;;;;;;;;;;30.60;79.70;;;;;;5073365;28;19932;-73
2022/06/11 12:05:22;;;;;;;;;;;29.60;81.60;;;;;;5072990;28;19924;-73
2022/06/11 12:07:50;;;;;;;;;;;29.70;79.60;;;;;;5073321;28;19924;-73
2022/06/11 12:10:23;;;;;;;;;;;30.40;79.50;;;;;;5073010;28;19924;-73
2022/06/11 12:12:52;;;;;;;;;;;31.70;76.30;;;;;;5073234;28;19955;-73
2022/06/11 12:15:20;;;;;;;;;;;31.50;77.50;;;;;;5072937;28;19978;-73
2022/06/11 12:17:49;;;;;;;;;;;31.30;77.40;;;;;;5073129;28;20396;-73
2022/06/11 12:20:18;;;;;;;;;;;31.20;78.30;;;;;;5073072;28;19924;-73
2022/06/11 12:22:48;;;;;;;;;;;31.40;77.30;;;;;;5072835;28;19924;-72
2022/06/11 12:25:20;;;;;;;;;;;31.70;77.10;;;;;;5072781;28;19928;-72
2022/06/11 12:27:48;;;;;;;;;;;33.40;75.70;;;;;;5072939;28;20332;-73
2022/06/11 12:30:20;;;;;;;;;;;32.40;74.60;;;;;;5072857;28;20019;-73
2022/06/11 12:32:47;;;;;;;;;;;32.10;76.60;;;;;;5072823;28;19929;-73
2022/06/11 12:35:15;;;;;;;;;;;31.50;76.40;;;;;;5072331;28;19947;-73
2022/06/11 12:37:46;;;;;;;;;;;33.30;74.40;;;;;;5054424;28;22071;-73
2022/06/11 12:40:21;;;;;;;;;;;32.30;73.60;;;;;;5072536;28;19925;-73
2022/06/11 12:42:51;;;;;;;;;;;32.00;75.30;;;;;;5071875;28;19924;-73
2022/06/11 12:45:24;;;;;;;;;;;31.40;76.30;;;;;;5072467;28;19924;-72
2022/06/11 12:48:00;;;;;;;;;;;30.60;78.20;;;;;;5072410;28;19924;-72
2022/06/11 12:50:32;;;;;;;;;;;31.10;76.80;;;;;;5072637;28;19994;-72
2022/06/11 12:53:02;;;;;;;;;;;30.40;80.00;;;;;;5072511;28;20354;-72
2022/06/11 12:55:43;;;;;;;;;;;31.90;77.10;;;;;;5072192;28;19924;-72
2022/06/11 12:58:19;;;;;;;;;;;32.80;74.80;;;;;;5072395;28;19924;-72
2022/06/11 13:00:49;;;;;;;;;;;32.90;74.90;;;;;;5072289;28;19924;-72
2022/06/11 13:03:23;;;;;;;;;;;33.00;75.20;;;;;;5072546;28;20385;-73
2022/06/11 13:06:01;;;;;;;;;;;33.60;74.60;;;;;;5071976;28;19924;-73
2022/06/11 13:08:33;;;;;;;;;;;34.00;73.80;;;;;;5072221;28;20027;-73
2022/06/11 13:11:01;;;;;;;;;;;33.10;74.50;;;;;;5072509;28;19925;-72
2022/06/11 13:13:43;;;;;;;;;;;32.60;75.50;;;;;;5072052;28;19979;-72
2022/06/11 13:16:15;;;;;;;;;;;32.00;75.00;;;;;;5071872;28;19928;-72
2022/06/11 13:18:51;;;;;;;;;;;31.80;76.60;;;;;;5072677;28;19924;-73
2022/06/11 13:21:19;;;;;;;;;;;32.50;76.50;;;;;;5071876;28;19925;-72
2022/06/11 13:23:50;;;;;;;;;;;32.30;75.30;;;;;;5072399;28;20359;-72
2022/06/11 13:26:19;;;;;;;;;;;33.00;75.20;;;;;;5072294;28;19936;-72
2022/06/11 13:28:52;;;;;;;;;;;34.40;73.80;;;;;;5071813;28;19978;-72
2022/06/11 13:31:24;;;;;;;;;;;34.00;72.20;;;;;;5072281;28;19924;-73
2022/06/11 13:33:57;;;;;;;;;;;33.80;72.60;;;;;;5071849;28;19990;-72
2022/06/11 13:36:32;;;;;;;;;;;32.70;74.10;;;;;;5072046;28;20373;-72
2022/06/11 13:39:05;;;;;;;;;;;31.70;73.40;;;;;;5072005;28;19928;-73
2022/06/11 13:41:39;;;;;;;;;;;31.00;76.80;;;;;;5071961;28;20336;-72
2022/06/11 13:44:13;;;;;;;;;;;30.50;78.40;;;;;;5071752;28;19970;-72
2022/06/11 13:46:48;;;;;;;;;;;30.50;79.10;;;;;;5071486;28;19979;-72
2022/06/11 13:49:22;;;;;;;;;;;31.90;75.40;;;;;;5071572;28;19925;-72
2022/06/11 13:51:53;;;;;;;;;;;31.40;75.60;;;;;;5071988;28;19928;-73
2022/06/11 13:57:15;;;;;;;;;;;30.90;77.60;;;;;;5075974;28;20063;-72
2022/06/11 13:59:51;;;;;;;;;;;29.50;79.00;;;;;;5076201;28;20389;-72
2022/06/11 14:02:46;;;;;;;;;;;30.10;77.70;;;;;;5075985;28;19982;-72
2022/06/11 14:05:15;;;;;;;;;;;30.20;78.70;;;;;;5075875;28;19931;-72
2022/06/11 14:07:42;;;;;;;;;;;31.50;78.10;;;;;;5075795;28;19925;-72
2022/06/11 14:10:24;;;;;;;;;;;31.90;77.50;;;;;;5075331;28;19924;-72
2022/06/11 14:12:51;;;;;;;;;;;31.50;78.10;;;;;;5075788;28;19998;-72
2022/06/11 14:15:27;;;;;;;;;;;30.80;78.40;;;;;;5075372;28;20279;-72
2022/06/11 14:17:56;;;;;;;;;;;30.90;78.20;;;;;;5075663;28;19925;-72
2022/06/11 14:20:25;;;;;;;;;;;31.40;77.90;;;;;;5075210;28;20011;-72
2022/06/11 14:22:53;;;;;;;;;;;31.20;78.30;;;;;;5075229;28;19978;-72
2022/06/11 14:25:37;;;;;;;;;;;30.80;79.30;;;;;;5075013;28;20015;-72
2022/06/11 14:28:19;;;;;;;;;;;30.50;79.60;;;;;;5075476;28;20407;-71
2022/06/11 14:31:05;;;;;;;;;;;29.90;80.50;;;;;;5075544;28;20479;-71
2022/06/11 14:33:34;;;;;;;;;;;30.10;80.30;;;;;;5075049;28;19924;-73
2022/06/11 14:36:03;;;;;;;;;;;30.00;81.40;;;;;;5075050;28;19928;-73
2022/06/11 14:38:32;;;;;;;;;;;30.20;80.50;;;;;;5074751;28;19931;-72